Terminal Aerodrome Forecast
Issued by NWS

Home | Current Version | Previous Version | Text Only | Print | Product List | Glossary On
Versions: 1 2 3 4 5 6 7 8 9 10 11 12 13 14 15 16 17 18
000
FTUS45 KGGW 202320
TAFOLF
TAF
KOLF 202320Z 2100/2124 09009KT P6SM SCT060
     FM210200 08007KT P6SM BKN060 WS020/22025KT
     FM210400 VRB06KT 3SM BR BKN030 WS020/24025KT
     FM211100 25007KT 5SM BR FEW020
     FM212200 28007KT P6SM BKN020=

USA.gov is the U.S. government's official web portal to all federal, state and local government web resources and services.